Aviation Digital Data Service (ADDS)

Output produced by TAFs form (0327 UTC 25 June 2017)
found at http://www.aviationweather.gov/adds/tafs/
 
KMDT 250324Z 2503/2524 26006KT P6SM SCT060 
     FM250900 30003KT 6SM BR SKC 
     FM251400 29011KT P6SM SCT060 
     FM251700 29011G20KT P6SM SCT060